LTFJ/SAW METAR and TAF weather

Enter ICAO airport designator
Station Type Date Time Source
LTFJ METAR 2019/02/16 17:50 UTC NOAA

LTFJ 161750Z 02013KT 9999 BKN040 05/02 Q1028 NOSIG


Station Type Date Time Source
LTFJ Decoded METAR 2019/02/16 17:50 UTC NOAA

Istanbul / Sabiha Gokcen, Turkey (LTFJ) 40-53-55N 029-18-33E
Feb 16, 2019 - 12:50 PM EST / 2019.02.16 1750 UTC
Wind: from the NNE (020 degrees) at 15 MPH (13 KT):0
Visibility: greater than 7 mile(s):0
Sky conditions: mostly cloudy
Temperature: 41 F (5 C)
Dew Point: 35 F (2 C)
Relative Humidity: 80%
Pressure (altimeter): 30.36 in. Hg (1028 hPa)
ob: LTFJ 161750Z 02013KT 9999 BKN040 05/02 Q1028 NOSIG
cycle: 18

Station Type Date Time Source
LTFJ TAF 2019/02/16 18:03 UTC NOAA

TAF LTFJ 161640Z 1618/1718 03009KT 9999 BKN035
BECMG 1620/1623 SCT035 PROB40
TEMPO 1702/1706 1600 BR


Example: see airport list